Time;durP1;ratioP1;P1;durP2;ratioP2;P2;SDS_P1;SDS_P2;PMS_P1;PMS_P2;Temp;Humidity;BMP_temperature;BMP_pressure;BME280_temperature;BME280_humidity;BME280_pressure;Samples;Min_cycle;Max_cycle;Signal;HPM_P1;HPM_P2
2022/12/17 13:08:09;;;;;;;37.25;28.63;;;;;;;15.35;66.25;99656.66;5025034;28;20029;-78
2022/12/17 13:10:36;;;;;;;44.17;31.00;;;;;;;15.00;67.18;99666.66;5040995;28;20035;-79
2022/12/17 13:13:33;;;;;;;45.13;31.05;;;;;;;14.42;67.53;99658.31;5053167;28;20056;-79
2022/12/17 13:16:15;;;;;;;41.17;30.70;;;;;;;14.20;69.04;99681.53;5051129;28;20052;-79
2022/12/17 13:18:41;;;;;;;48.83;32.28;;;;;;;13.61;69.39;99627.13;5053127;28;20029;-78
2022/12/17 13:21:15;;;;;;;42.33;31.92;;;;;;;13.88;69.76;99678.50;5052756;28;20037;-80
2022/12/17 13:23:41;;;;;;;47.90;35.85;;;;;;;13.55;69.90;99641.16;5053131;28;20028;-80
2022/12/17 13:26:19;;;;;;;42.15;32.42;;;;;;;13.54;70.15;99676.66;5047078;28;20037;-79
2022/12/17 13:29:16;;;;;;;39.97;31.45;;;;;;;13.31;70.61;99660.16;5036787;28;20478;-80
2022/12/17 13:32:04;;;;;;;42.42;31.20;;;;;;;13.25;70.66;99667.03;5033386;28;20025;-79
2022/12/17 13:34:47;;;;;;;45.45;33.22;;;;;;;13.21;71.36;99680.88;5033201;28;20040;-78
2022/12/17 13:37:13;;;;;;;46.67;32.17;;;;;;;13.23;71.28;99674.38;5033799;28;20037;-78
2022/12/17 13:39:53;;;;;;;44.67;32.40;;;;;;;13.28;71.14;99695.00;5041217;28;20502;-78
2022/12/17 13:42:27;;;;;;;46.13;33.35;;;;;;;12.87;71.15;99637.34;5039509;28;20090;-78
2022/12/17 13:44:53;;;;;;;40.58;30.23;;;;;;;12.95;71.27;99654.94;5033063;28;20510;-78
2022/12/17 13:47:24;;;;;;;46.10;34.78;;;;;;;12.17;71.45;99528.69;5032960;28;20025;-78
2022/12/17 13:49:52;;;;;;;37.40;29.02;;;;;;;13.11;71.40;99667.91;5034290;28;20033;-78
2022/12/17 13:52:19;;;;;;;43.05;31.75;;;;;;;13.09;71.53;99688.50;5052343;28;20034;-78
2022/12/17 13:54:45;;;;;;;42.00;33.05;;;;;;;13.04;71.58;99673.16;5056212;28;20482;-79
2022/12/17 13:57:16;;;;;;;48.40;37.80;;;;;;;13.09;71.35;99671.78;5051206;28;20059;-79
2022/12/17 13:59:51;;;;;;;43.58;33.92;;;;;;;13.07;71.39;99671.97;5052424;28;20036;-78
2022/12/17 14:02:37;;;;;;;42.53;31.73;;;;;;;12.49;71.31;99583.78;5052739;28;20044;-79
2022/12/17 14:05:05;;;;;;;49.00;35.05;;;;;;;13.06;71.44;99659.72;5052764;28;20025;-78
2022/12/17 14:07:34;;;;;;;45.40;33.35;;;;;;;12.62;71.50;99602.44;5051236;28;20021;-78
2022/12/17 14:10:01;;;;;;;48.75;35.47;;;;;;;12.59;71.57;99592.22;5045816;28;20021;-77
2022/12/17 14:12:28;;;;;;;50.38;36.78;;;;;;;12.80;71.28;99631.16;5040083;28;20053;-79
2022/12/17 14:15:02;;;;;;;50.58;34.95;;;;;;;12.87;71.25;99663.84;5037958;28;20036;-78
2022/12/17 14:17:41;;;;;;;53.08;39.83;;;;;;;12.77;71.35;99628.88;5052658;28;20021;-80
2022/12/17 14:20:16;;;;;;;50.58;36.88;;;;;;;12.50;71.37;99579.28;5051102;28;20025;-80
2022/12/17 14:22:47;;;;;;;42.88;32.88;;;;;;;12.47;71.40;99567.25;5052123;28;20056;-80
2022/12/17 14:25:37;;;;;;;40.40;32.38;;;;;;;11.68;70.98;99481.69;5048674;28;20090;-79
2022/12/17 14:28:05;;;;;;;37.65;28.63;;;;;;;12.80;71.21;99648.88;5047365;28;20036;-79
2022/12/17 14:30:42;;;;;;;37.10;29.25;;;;;;;13.03;71.14;99682.13;5061933;28;20090;-78
2022/12/17 14:33:26;;;;;;;42.47;30.48;;;;;;;12.99;71.06;99701.25;5032023;28;20104;-80
2022/12/17 14:35:53;;;;;;;37.72;30.23;;;;;;;12.97;71.24;99709.38;5032192;28;20064;-79
2022/12/17 14:38:19;;;;;;;36.92;30.00;;;;;;;12.96;71.12;99715.69;5032086;28;20057;-79
2022/12/17 14:40:45;;;;;;;39.75;31.30;;;;;;;12.97;71.15;99708.56;5048129;28;20024;-79
2022/12/17 14:43:13;;;;;;;35.80;28.75;;;;;;;12.30;71.44;99571.97;5035529;28;20534;-79
2022/12/17 14:46:19;;;;;;;44.13;31.98;;;;;;;12.64;71.31;99597.81;5041086;28;20040;-79
2022/12/17 14:51:23;;;;;;;37.15;27.67;;;;;;;12.93;70.91;99712.59;5052264;28;20039;-79
2022/12/17 14:53:48;;;;;;;;;;;;;;;12.73;71.10;99717.72;5052450;28;20030;-79
2022/12/17 14:56:22;;;;;;;38.47;27.40;;;;;;;12.61;71.64;99692.69;5050679;28;19916;-79
2022/12/17 14:58:47;;;;;;;38.70;29.65;;;;;;;12.78;71.18;99741.00;5050666;28;20113;-79
2022/12/17 15:01:13;;;;;;;34.05;26.88;;;;;;;12.68;71.64;99718.28;5051665;28;20537;-79
2022/12/17 15:03:41;;;;;;;36.58;26.55;;;;;;;12.48;71.56;99693.34;5052062;28;20025;-79
2022/12/17 15:06:09;;;;;;;34.78;25.90;;;;;;;12.66;71.95;99708.88;5051915;28;20033;-79
2022/12/17 15:08:39;;;;;;;38.25;28.23;;;;;;;12.54;71.66;99719.09;5050569;28;20024;-79
2022/12/17 15:11:04;;;;;;;36.90;29.67;;;;;;;12.20;72.10;99681.81;5051347;28;20505;-80
2022/12/17 15:13:30;;;;;;;43.63;32.88;;;;;;;12.46;72.10;99727.16;5051673;28;20047;-77
2022/12/17 15:15:56;;;;;;;39.28;31.67;;;;;;;12.16;72.16;99696.44;5051559;28;20025;-80
2022/12/17 15:18:21;;;;;;;46.15;32.65;;;;;;;12.58;71.87;99752.16;5051419;28;20528;-79
2022/12/17 15:20:47;;;;;;;41.35;30.73;;;;;;;12.13;72.16;99665.88;5051594;28;20458;-79
2022/12/17 15:23:18;;;;;;;57.80;38.15;;;;;;;12.28;72.17;99694.97;5051545;28;20029;-79
2022/12/17 15:25:46;;;;;;;37.10;26.42;;;;;;;12.42;72.15;99733.81;5051861;28;20033;-79
2022/12/17 15:28:11;;;;;;;41.92;30.70;;;;;;;12.49;72.42;99732.06;5049746;28;20040;-79
2022/12/17 15:30:38;;;;;;;41.58;29.33;;;;;;;12.14;72.48;99683.38;5050494;28;20025;-79
2022/12/17 15:33:05;;;;;;;40.05;30.45;;;;;;;12.46;72.40;99737.75;5051247;28;20064;-79
2022/12/17 15:35:31;;;;;;;39.85;32.15;;;;;;;12.47;72.89;99757.09;5050061;28;20207;-79
2022/12/17 15:37:56;;;;;;;36.95;28.75;;;;;;;11.92;72.70;99682.50;5051243;28;20064;-80
2022/12/17 15:40:22;;;;;;;40.70;30.30;;;;;;;12.48;73.08;99774.63;5051236;28;20083;-79
2022/12/17 15:45:32;;;;;;;40.28;30.25;;;;;;;12.35;72.67;99765.50;5050965;28;20039;-79
2022/12/17 15:47:57;;;;;;;40.90;31.15;;;;;;;11.82;72.83;99694.31;5051065;28;20021;-80
2022/12/17 15:50:23;;;;;;;44.47;32.22;;;;;;;11.53;73.09;99647.50;5050889;28;20032;-79
2022/12/17 15:52:48;;;;;;;42.15;32.35;;;;;;;11.93;73.36;99718.53;5051103;28;20099;-80
2022/12/17 15:55:14;;;;;;;41.40;30.88;;;;;;;12.22;73.29;99777.75;5049733;28;20029;-79
2022/12/17 15:57:39;;;;;;;40.03;30.45;;;;;;;11.71;73.23;99695.56;5050993;28;20477;-79
2022/12/17 16:00:06;;;;;;;42.90;31.88;;;;;;;12.28;73.34;99791.09;5049646;28;20028;-79
2022/12/17 16:02:32;;;;;;;42.10;33.10;;;;;;;12.09;73.06;99783.69;5050955;28;20033;-79
2022/12/17 16:04:57;;;;;;;42.67;32.05;;;;;;;12.21;73.33;99786.69;5051378;28;20087;-79
2022/12/17 16:07:22;;;;;;;43.67;33.13;;;;;;;12.27;73.39;99804.50;5050937;28;20044;-79
2022/12/17 16:09:48;;;;;;;46.28;33.70;;;;;;;11.84;73.38;99739.94;5050797;28;20017;-79
2022/12/17 16:12:13;;;;;;;45.10;34.97;;;;;;;11.94;73.33;99767.81;5050717;28;20437;-79
2022/12/17 16:14:39;;;;;;;45.90;33.25;;;;;;;11.85;73.38;99771.50;5050663;28;20036;-79
2022/12/17 16:17:04;;;;;;;42.92;33.08;;;;;;;11.96;73.25;99816.06;5050820;28;20079;-79
2022/12/17 16:19:29;;;;;;;44.90;33.28;;;;;;;12.18;73.72;99855.88;5050596;28;20107;-80
2022/12/17 16:21:55;;;;;;;50.75;37.63;;;;;;;12.19;73.58;99868.13;5050801;28;20036;-79
2022/12/17 16:24:20;;;;;;;46.92;35.67;;;;;;;12.02;74.04;99857.69;5049594;28;20413;-78
2022/12/17 16:26:46;;;;;;;52.08;36.15;;;;;;;11.77;73.58;99830.59;5050765;28;20079;-79
2022/12/17 16:29:11;;;;;;;48.75;34.70;;;;;;;11.69;73.99;99835.94;5050789;28;20060;-78
2022/12/17 16:31:36;;;;;;;50.35;39.28;;;;;;;11.60;74.04;99828.25;5050901;28;20060;-79
2022/12/17 16:34:06;;;;;;;54.88;39.92;;;;;;;11.67;73.85;99829.19;5049430;28;20105;-79
2022/12/17 16:36:31;;;;;;;45.20;33.63;;;;;;;12.14;74.14;99907.53;5049718;28;20037;-79
2022/12/17 16:38:57;;;;;;;46.83;35.38;;;;;;;11.64;74.11;99830.34;5052375;28;20097;-79
2022/12/17 16:41:23;;;;;;;65.78;46.50;;;;;;;11.73;74.17;99845.16;5054199;28;20533;-79
2022/12/17 16:43:48;;;;;;;68.18;47.45;;;;;;;11.86;73.97;99859.63;5054179;28;20028;-80
2022/12/17 16:46:25;;;;;;;54.70;40.58;;;;;;;12.14;74.06;99899.59;5054136;28;20059;-79
2022/12/17 16:48:51;;;;;;;51.05;38.40;;;;;;;11.78;73.88;99815.56;5054034;28;20090;-79
2022/12/17 16:51:18;;;;;;;47.60;34.13;;;;;;;12.32;73.79;99885.03;5054091;28;20102;-80
2022/12/17 16:53:44;;;;;;;42.53;31.10;;;;;;;12.25;73.86;99878.00;5054046;28;20508;-79
2022/12/17 16:56:18;;;;;;;45.38;32.08;;;;;;;11.97;73.81;99814.25;5053935;28;20025;-79
2022/12/17 16:58:44;;;;;;;47.10;37.03;;;;;;;12.17;73.66;99839.19;5053607;28;20417;-79
2022/12/17 17:01:10;;;;;;;42.30;32.58;;;;;;;12.29;73.65;99831.63;5053811;28;20029;-80
2022/12/17 17:03:43;;;;;;;41.80;31.33;;;;;;;12.06;73.51;99770.81;5053811;28;20029;-79
2022/12/17 17:06:08;;;;;;;38.10;32.42;;;;;;;12.02;73.65;99778.31;5053728;28;20036;-79
2022/12/17 17:08:38;;;;;;;49.70;36.90;;;;;;;12.19;73.65;99796.66;5053645;28;20025;-79
2022/12/17 17:11:10;;;;;;;51.20;40.95;;;;;;;11.81;73.27;99740.28;5053390;28;20057;-79
2022/12/17 17:13:36;;;;;;;45.08;35.10;;;;;;;12.37;73.71;99805.88;5053426;28;20033;-79
2022/12/17 17:16:02;;;;;;;51.70;37.45;;;;;;;11.96;73.17;99739.34;5053364;28;20029;-78
2022/12/17 17:18:27;;;;;;;45.83;37.58;;;;;;;12.35;73.45;99809.72;5053231;28;20036;-80
2022/12/17 17:20:54;;;;;;;51.70;38.08;;;;;;;12.37;73.94;99832.34;5052113;28;20025;-79
2022/12/17 17:23:19;;;;;;;56.80;41.50;;;;;;;11.81;73.42;99732.38;5053321;28;20017;-79
2022/12/17 17:25:45;;;;;;;48.78;37.15;;;;;;;12.20;73.35;99814.19;5053950;28;20379;-79
2022/12/17 17:28:10;;;;;;;44.63;34.47;;;;;;;11.83;73.33;99777.97;5053533;28;20036;-79
2022/12/17 17:30:36;;;;;;;45.92;36.42;;;;;;;11.84;73.79;99782.25;5053320;28;20563;-79
2022/12/17 17:33:01;;;;;;;43.08;35.00;;;;;;;12.37;73.79;99858.84;5053183;28;20029;-78
2022/12/17 17:35:26;;;;;;;44.50;32.83;;;;;;;12.39;73.68;99880.66;5053258;28;20100;-80
2022/12/17 17:37:52;;;;;;;51.78;38.47;;;;;;;12.38;73.95;99868.41;5052974;28;20029;-78
2022/12/17 17:40:17;;;;;;;42.95;34.08;;;;;;;12.27;73.77;99860.91;5053180;28;20387;-79
2022/12/17 17:42:43;;;;;;;50.38;36.55;;;;;;;11.78;73.61;99773.22;5052979;28;20410;-78
2022/12/17 17:45:08;;;;;;;45.28;34.10;;;;;;;12.22;73.81;99844.75;5052871;28;20528;-79
2022/12/17 17:47:34;;;;;;;45.10;34.20;;;;;;;11.93;73.72;99794.44;5053387;28;20504;-79
2022/12/17 17:49:59;;;;;;;50.58;35.97;;;;;;;12.16;73.80;99816.38;5052897;28;20096;-79
2022/12/17 17:52:24;;;;;;;56.38;40.83;;;;;;;11.93;73.59;99782.03;5053054;28;20068;-79
2022/12/17 17:54:50;;;;;;;58.55;40.88;;;;;;;12.21;73.78;99852.88;5051858;28;20104;-79
2022/12/17 17:57:15;;;;;;;61.95;43.45;;;;;;;12.25;74.18;99870.06;5051817;28;20086;-79
2022/12/17 17:59:41;;;;;;;56.72;40.08;;;;;;;11.96;73.89;99826.66;5053001;28;20489;-79
2022/12/17 18:02:09;;;;;;;43.47;31.05;;;;;;;12.23;74.04;99862.28;5053061;28;20024;-79
2022/12/17 18:04:35;;;;;;;42.70;31.38;;;;;;;11.66;73.84;99786.03;5052868;28;20096;-78
2022/12/17 18:07:00;;;;;;;53.80;35.90;;;;;;;12.20;73.99;99864.47;5051481;28;20116;-79
2022/12/17 18:09:26;;;;;;;46.20;33.33;;;;;;;12.00;73.95;99841.16;5052585;28;20100;-79
2022/12/17 18:11:51;;;;;;;46.80;31.85;;;;;;;11.47;74.05;99781.25;5052446;28;20041;-78
2022/12/17 18:14:17;;;;;;;42.13;30.67;;;;;;;12.07;74.11;99875.69;5052375;28;20445;-79
2022/12/17 18:16:45;;;;;;;45.47;31.83;;;;;;;11.52;74.36;99793.94;5052760;28;20017;-78
2022/12/17 18:19:11;;;;;;;46.28;33.42;;;;;;;12.00;74.40;99867.63;5052393;28;20032;-78
2022/12/17 18:21:38;;;;;;;41.17;32.88;;;;;;;11.91;74.26;99862.59;5052476;28;20052;-79
2022/12/17 18:24:13;;;;;;;47.58;34.60;;;;;;;12.12;74.19;99891.03;5052332;28;20029;-78
2022/12/17 18:26:41;;;;;;;49.38;35.85;;;;;;;12.13;74.12;99887.38;5052313;28;20028;-79
2022/12/17 18:29:13;;;;;;;46.10;33.85;;;;;;;12.12;74.30;99881.25;5050966;28;20486;-79
2022/12/17 18:31:38;;;;;;;45.50;34.15;;;;;;;12.02;74.29;99883.34;5052225;28;20512;-79
2022/12/17 18:34:05;;;;;;;45.50;34.17;;;;;;;11.99;73.74;99871.28;5050705;28;20068;-78
2022/12/17 18:36:36;;;;;;;44.33;34.72;;;;;;;12.01;74.36;99884.34;5051967;28;20032;-78
2022/12/17 18:39:09;;;;;;;45.35;35.33;;;;;;;11.92;74.25;99888.06;5051821;28;20021;-78
2022/12/17 18:44:19;;;;;;;50.85;36.63;;;;;;;11.93;74.69;99902.94;5051978;28;20023;-79
2022/12/17 18:46:45;;;;;;;46.58;34.88;;;;;;;11.37;74.65;99818.50;5051667;28;20017;-78
2022/12/17 18:49:13;;;;;;;45.03;32.67;;;;;;;11.96;74.46;99907.88;5051693;28;20009;-78
2022/12/17 18:51:41;;;;;;;45.92;34.92;;;;;;;11.76;74.66;99881.00;5050363;28;20108;-79
2022/12/17 18:54:11;;;;;;;47.58;37.42;;;;;;;11.84;74.31;99899.50;5051819;28;20046;-79
2022/12/17 18:56:36;;;;;;;45.42;35.47;;;;;;;11.70;74.48;99881.72;5051711;28;20027;-79
2022/12/17 18:59:03;;;;;;;49.20;35.67;;;;;;;11.91;74.68;99937.50;5051686;28;20025;-78
2022/12/17 19:01:31;;;;;;;52.78;39.20;;;;;;;11.92;74.45;99933.03;5051212;28;20573;-78
2022/12/17 19:03:59;;;;;;;54.30;41.65;;;;;;;11.93;74.65;99940.78;5051364;28;20029;-78
2022/12/17 19:06:25;;;;;;;61.85;44.38;;;;;;;11.94;74.58;99954.84;5051608;28;20021;-78
2022/12/17 19:08:51;;;;;;;57.63;42.25;;;;;;;11.58;74.60;99905.09;5051454;28;20020;-78
2022/12/17 19:11:19;;;;;;;61.42;45.22;;;;;;;11.94;74.91;99949.56;5051261;28;20418;-78
2022/12/17 19:13:45;;;;;;;65.38;47.78;;;;;;;11.38;74.55;99856.34;5050248;28;20078;-78
2022/12/17 19:16:13;;;;;;;65.57;45.90;;;;;;;11.98;74.48;99942.91;5051481;28;20044;-78
2022/12/17 19:18:39;;;;;;;67.55;48.38;;;;;;;11.45;74.59;99873.97;5050139;28;20021;-79
2022/12/17 19:21:06;;;;;;;66.03;50.58;;;;;;;11.56;74.33;99866.63;5051502;28;20083;-79
2022/12/17 19:23:32;;;;;;;66.40;46.67;;;;;;;11.53;74.86;99857.22;5051407;28;20071;-78
2022/12/17 19:26:10;;;;;;;60.10;43.00;;;;;;;11.96;74.61;99931.69;5051415;28;20387;-79
2022/12/17 19:28:38;;;;;;;61.55;45.38;;;;;;;11.77;74.80;99909.97;5051442;28;20021;-79
2022/12/17 19:31:04;;;;;;;60.20;42.78;;;;;;;11.93;74.61;99939.97;5051214;28;20505;-78
2022/12/17 19:33:29;;;;;;;62.75;43.78;;;;;;;11.92;74.93;99954.19;5051509;28;20029;-79
2022/12/17 19:36:04;;;;;;;56.83;43.65;;;;;;;11.72;75.08;99899.06;5051199;28;20092;-79
2022/12/17 19:38:30;;;;;;;57.22;41.42;;;;;;;11.04;75.28;99793.25;5051127;28;20021;-79
2022/12/17 19:41:08;;;;;;;64.60;42.80;;;;;;;11.75;75.09;99924.34;5051537;28;20032;-79
2022/12/17 19:43:34;;;;;;;64.55;45.92;;;;;;;11.19;75.33;99830.34;5051471;28;20508;-79
2022/12/17 19:46:04;;;;;;;57.30;42.65;;;;;;;11.87;75.40;99952.06;5051094;28;20021;-79
2022/12/17 19:48:32;;;;;;;59.03;42.60;;;;;;;11.89;75.24;99949.22;5051044;28;20162;-78
2022/12/17 19:50:57;;;;;;;64.40;45.63;;;;;;;11.64;75.37;99904.41;5049818;28;20025;-79
2022/12/17 19:53:25;;;;;;;68.38;51.55;;;;;;;11.41;75.17;99858.63;5051104;28;20483;-78
2022/12/17 19:55:55;;;;;;;67.15;49.90;;;;;;;11.52;75.35;99894.41;5051134;28;20106;-78
2022/12/17 19:58:22;;;;;;;69.15;52.10;;;;;;;11.87;75.16;99940.66;5050993;28;20382;-79
2022/12/17 20:00:48;;;;;;;67.55;50.85;;;;;;;11.53;75.41;99888.94;5051089;28;20025;-79
2022/12/17 20:03:14;;;;;;;66.40;50.28;;;;;;;11.87;75.38;99945.94;5050942;28;20024;-78
2022/12/17 20:05:45;;;;;;;61.90;47.80;;;;;;;11.64;75.15;99906.22;5050990;28;20025;-78
2022/12/17 20:08:11;;;;;;;;;;;;;;;11.70;75.56;99946.03;5051202;28;20063;-78
2022/12/17 20:10:37;;;;;;;66.80;49.65;;;;;;;11.78;75.69;99950.47;5050530;28;20348;-79
2022/12/17 20:13:03;;;;;;;76.28;57.05;;;;;;;11.19;75.11;99852.31;5051497;28;20107;-78
2022/12/17 20:15:29;;;;;;;65.60;52.47;;;;;;;11.46;75.82;99885.34;5053474;28;20107;-79
2022/12/17 20:17:54;;;;;;;70.38;50.85;;;;;;;11.25;75.38;99851.63;5054768;28;20099;-78
2022/12/17 20:20:19;;;;;;;67.43;50.78;;;;;;;11.27;75.65;99857.56;5053593;28;20493;-78
2022/12/17 20:22:45;;;;;;;72.95;54.55;;;;;;;11.75;75.49;99937.56;5054782;28;20503;-79
2022/12/17 20:25:10;;;;;;;72.90;54.42;;;;;;;11.33;75.16;99874.53;5054542;28;20021;-79
2022/12/17 20:27:37;;;;;;;90.68;65.75;;;;;;;11.85;75.08;99963.81;5054635;28;20028;-79
2022/12/17 20:30:04;;;;;;;80.68;59.13;;;;;;;11.57;75.42;99935.19;5054455;28;20021;-78
2022/12/17 20:32:32;;;;;;;89.60;65.13;;;;;;;11.80;75.49;99974.91;5054446;28;20025;-79
2022/12/17 20:34:58;;;;;;;93.70;65.93;;;;;;;11.78;75.52;99971.63;5054590;28;20103;-79
2022/12/17 20:37:23;;;;;;;83.55;58.45;;;;;;;11.39;75.44;99940.75;5054385;28;20438;-79
2022/12/17 20:39:48;;;;;;;82.53;60.75;;;;;;;11.74;75.34;100004.69;5054259;28;20413;-79
2022/12/17 20:42:16;;;;;;;88.47;67.82;;;;;;;11.64;75.30;99993.50;5054209;28;20493;-78
2022/12/17 20:44:41;;;;;;;83.60;63.42;;;;;;;11.28;75.19;99946.44;5054196;28;20032;-78
2022/12/17 20:47:07;;;;;;;82.15;62.78;;;;;;;11.07;75.63;99925.84;5054236;28;20021;-78
2022/12/17 20:49:32;;;;;;;84.10;60.95;;;;;;;11.17;75.33;99938.06;5054167;28;20516;-79
2022/12/17 20:51:58;;;;;;;81.55;57.95;;;;;;;11.41;75.26;99996.94;5053983;28;20051;-79
2022/12/17 20:54:23;;;;;;;79.13;56.25;;;;;;;11.33;75.78;99973.16;5054136;28;20099;-79
2022/12/17 20:56:49;;;;;;;90.43;62.88;;;;;;;10.96;75.27;99915.66;5052634;28;20072;-79
2022/12/17 20:59:17;;;;;;;88.10;61.33;;;;;;;11.07;75.71;99951.44;5054049;28;20029;-78
2022/12/17 21:01:43;;;;;;;90.13;60.67;;;;;;;11.40;75.31;100008.50;5053987;28;20036;-78
2022/12/17 21:04:11;;;;;;;81.78;58.13;;;;;;;10.65;75.51;99899.75;5054001;28;20145;-79
2022/12/17 21:06:42;;;;;;;75.85;53.83;;;;;;;11.25;75.45;99994.34;5053913;28;20021;-79
2022/12/17 21:09:07;;;;;;;75.05;52.88;;;;;;;11.33;75.65;100002.25;5053882;28;20414;-79
2022/12/17 21:11:34;;;;;;;71.10;51.08;;;;;;;10.70;75.70;99889.50;5053591;28;20044;-78
2022/12/17 21:14:08;;;;;;;68.78;49.78;;;;;;;11.14;75.06;99961.16;5053848;28;20509;-79
2022/12/17 21:16:34;;;;;;;74.68;52.30;;;;;;;11.52;75.48;100022.16;5053637;28;20043;-78
2022/12/17 21:19:01;;;;;;;72.35;52.72;;;;;;;11.42;75.70;100011.78;5052042;28;20029;-79
2022/12/17 21:21:29;;;;;;;72.82;51.33;;;;;;;11.37;75.64;100006.19;5053344;28;20021;-78
2022/12/17 21:23:55;;;;;;;74.18;53.78;;;;;;;11.56;75.84;100025.28;5053608;28;20028;-79
2022/12/17 21:26:25;;;;;;;68.50;50.05;;;;;;;11.64;75.93;100030.53;5052498;28;20017;-79
2022/12/17 21:28:53;;;;;;;69.53;53.15;;;;;;;11.69;75.17;100038.78;5053303;28;20444;-78
2022/12/17 21:31:24;;;;;;;69.30;52.53;;;;;;;11.36;75.51;99983.41;5053312;28;20466;-79
2022/12/17 21:33:52;;;;;;;61.50;45.05;;;;;;;11.54;75.27;99985.78;5053151;28;20493;-79
2022/12/17 21:36:20;;;;;;;71.25;50.45;;;;;;;11.62;75.23;99998.97;5052368;28;20035;-79
2022/12/17 21:38:45;;;;;;;65.30;49.38;;;;;;;11.69;75.24;100012.31;5053028;28;20051;-78
2022/12/17 21:41:13;;;;;;;74.32;53.33;;;;;;;11.64;75.06;99999.63;5053622;28;20556;-78
2022/12/17 21:43:39;;;;;;;66.05;50.03;;;;;;;11.64;75.54;100004.09;5053094;28;20032;-79
2022/12/17 21:46:06;;;;;;;68.60;50.13;;;;;;;11.70;75.67;100028.03;5051781;28;20021;-79
2022/12/17 21:48:33;;;;;;;60.65;45.67;;;;;;;11.79;75.10;100039.41;5052884;28;20017;-78
2022/12/17 21:50:59;;;;;;;64.93;50.17;;;;;;;11.73;75.64;100030.31;5052881;28;20412;-79
2022/12/17 21:53:24;;;;;;;58.10;45.63;;;;;;;11.24;75.86;99958.34;5051628;28;20100;-79
2022/12/17 21:55:52;;;;;;;59.53;41.17;;;;;;;11.37;75.79;99992.16;5052811;28;20025;-79
2022/12/17 21:58:18;;;;;;;53.50;39.70;;;;;;;11.71;76.20;100050.84;5052834;28;20078;-79
2022/12/17 22:00:43;;;;;;;57.10;40.67;;;;;;;11.61;76.49;100030.88;5051426;28;20020;-77
2022/12/17 22:03:09;;;;;;;51.88;39.90;;;;;;;10.92;76.31;99922.28;5051922;28;20413;-79
2022/12/17 22:05:36;;;;;;;47.95;36.40;;;;;;;11.42;76.49;100003.88;5053011;28;20032;-78
2022/12/17 22:08:02;;;;;;;54.25;39.33;;;;;;;11.63;76.91;100007.72;5052724;28;20020;-78
2022/12/17 22:10:28;;;;;;;47.28;35.78;;;;;;;11.40;76.62;99960.09;5052644;28;20025;-79
2022/12/17 22:15:38;;;;;;;40.97;31.90;;;;;;;11.75;77.21;100024.84;5052855;28;20472;-79
2022/12/17 22:18:04;;;;;;;49.40;36.15;;;;;;;11.46;76.65;99986.66;5052516;28;20077;-78
2022/12/17 22:20:30;;;;;;;45.90;35.30;;;;;;;11.24;77.29;99939.03;5052521;28;20036;-79
2022/12/17 22:22:55;;;;;;;48.17;36.08;;;;;;;11.79;77.25;100052.66;5052155;28;20418;-79
2022/12/17 22:25:21;;;;;;;44.10;33.85;;;;;;;11.53;76.84;100015.06;5052132;28;20031;-79
2022/12/17 22:27:46;;;;;;;51.28;36.35;;;;;;;11.71;76.94;100034.97;5052189;28;20453;-79
2022/12/17 22:33:01;;;;;;;46.28;35.00;;;;;;;11.34;77.26;99964.25;5052511;28;20089;-79
2022/12/17 22:35:33;;;;;;;46.75;34.05;;;;;;;11.83;77.43;100051.28;5050889;28;20025;-79
2022/12/17 22:37:59;;;;;;;44.08;33.83;;;;;;;11.81;77.50;100053.28;5050734;28;20025;-79
2022/12/17 22:40:25;;;;;;;45.97;34.83;;;;;;;11.41;77.53;99994.28;5052080;28;20013;-79
2022/12/17 22:45:38;;;;;;;45.15;34.40;;;;;;;11.82;77.81;100075.28;5051863;28;20040;-78
2022/12/17 22:48:04;;;;;;;49.78;36.38;;;;;;;11.37;77.59;99995.63;5051865;28;20024;-79
2022/12/17 22:50:29;;;;;;;40.28;32.35;;;;;;;11.60;77.31;100027.41;5050920;28;20024;-79
2022/12/17 22:52:54;;;;;;;46.45;32.40;;;;;;;11.64;77.35;100049.88;5051847;28;20025;-78
2022/12/17 22:55:20;;;;;;;45.30;32.40;;;;;;;11.83;78.12;100088.34;5050472;28;20078;-79
2022/12/17 22:57:45;;;;;;;43.60;34.42;;;;;;;11.50;77.58;100033.91;5051571;28;20433;-79
2022/12/17 23:00:32;;;;;;;45.17;33.33;;;;;;;11.85;77.57;100091.63;5051609;28;20025;-79
2022/12/17 23:02:58;;;;;;;45.78;33.33;;;;;;;11.49;77.61;100042.84;5051495;28;20512;-79
2022/12/17 23:05:25;;;;;;;44.40;34.13;;;;;;;11.36;77.70;100033.63;5051501;28;20029;-79
2022/12/17 23:07:51;;;;;;;49.47;37.22;;;;;;;11.86;77.92;100125.03;5051369;28;20021;-79
2022/12/17 23:10:18;;;;;;;50.00;35.95;;;;;;;11.74;77.80;100090.16;5051306;28;20013;-79
2022/12/17 23:12:50;;;;;;;52.85;38.55;;;;;;;11.36;77.96;100027.53;5051352;28;20041;-78
2022/12/17 23:15:17;;;;;;;;;;;;;;;11.74;78.31;100107.84;5051915;28;20044;-79
2022/12/17 23:17:42;;;;;;;46.42;36.03;;;;;;;11.44;78.25;100046.81;5051532;28;19909;-79
2022/12/17 23:20:08;;;;;;;46.15;36.00;;;;;;;11.88;77.97;100124.88;5051392;28;20029;-79
2022/12/17 23:22:34;;;;;;;50.17;38.05;;;;;;;11.88;78.05;100133.63;5050096;28;20104;-79
2022/12/17 23:24:59;;;;;;;48.30;35.42;;;;;;;11.72;78.26;100120.44;5051508;28;20101;-79
2022/12/17 23:27:25;;;;;;;52.00;37.83;;;;;;;11.55;78.35;100103.81;5051772;28;20052;-79
2022/12/17 23:29:50;;;;;;;47.08;34.50;;;;;;;11.42;78.62;100075.25;5050327;28;20013;-78
2022/12/17 23:32:16;;;;;;;50.45;36.58;;;;;;;11.94;78.37;100187.72;5051507;28;20094;-80
2022/12/17 23:34:41;;;;;;;54.20;37.50;;;;;;;11.63;78.36;100122.28;5051116;28;20021;-79
2022/12/17 23:37:07;;;;;;;55.55;38.13;;;;;;;11.19;78.49;100034.69;5051294;28;20024;-79
2022/12/17 23:39:32;;;;;;;48.67;37.42;;;;;;;11.58;78.12;100105.28;5051077;28;20028;-80
2022/12/17 23:41:57;;;;;;;44.63;34.60;;;;;;;11.85;78.10;100128.69;5051158;28;20028;-80
2022/12/17 23:44:23;;;;;;;50.10;36.72;;;;;;;11.98;78.97;100128.97;5051260;28;20490;-78
2022/12/17 23:46:48;;;;;;;47.70;36.40;;;;;;;11.91;78.81;100112.16;5051098;28;20025;-79
2022/12/17 23:49:14;;;;;;;43.90;34.53;;;;;;;11.74;78.79;100079.59;5052256;28;20009;-79
2022/12/17 23:51:39;;;;;;;40.80;31.98;;;;;;;12.01;78.83;100156.91;5055100;28;20033;-79
2022/12/17 23:54:05;;;;;;;48.10;35.75;;;;;;;12.01;78.80;100167.50;5055122;28;20024;-79
2022/12/17 23:56:30;;;;;;;42.47;32.58;;;;;;;11.67;78.88;100109.53;5055404;28;20383;-79
2022/12/17 23:58:59;;;;;;;40.22;30.40;;;;;;;11.31;79.25;100057.13;5054049;28;20040;-79
